Time;durP1;ratioP1;P1;durP2;ratioP2;P2;SDS_P1;SDS_P2;PMS_P1;PMS_P2;Temp;Humidity;BMP_temperature;BMP_pressure;BME280_temperature;BME280_humidity;BME280_pressure;Samples;Min_cycle;Max_cycle;Signal;HPM_P1;HPM_P2
2022/01/07 00:00:16;;;;;;;3.38;2.70;;;;;;;;;;5123892;27;24467;-57
2022/01/07 00:02:41;;;;;;;3.13;2.80;;;;;;;;;;5115228;27;25060;-57
2022/01/07 00:05:06;;;;;;;3.30;3.00;;;;;;;;;;5115203;27;24575;-57
2022/01/07 00:07:31;;;;;;;3.27;2.63;;;;;;;;;;5118670;27;24473;-58
2022/01/07 00:09:57;;;;;;;3.13;2.88;;;;;;;;;;5121632;27;24778;-58
2022/01/07 00:12:22;;;;;;;3.70;2.80;;;;;;;;;;5123219;27;24931;-59
2022/01/07 00:14:47;;;;;;;3.85;2.80;;;;;;;;;;5119223;27;24436;-59
2022/01/07 00:17:13;;;;;;;3.27;2.93;;;;;;;;;;5119653;27;24408;-59
2022/01/07 00:19:38;;;;;;;2.80;2.60;;;;;;;;;;5119468;27;24538;-58
2022/01/07 00:22:03;;;;;;;2.88;2.60;;;;;;;;;;5118780;27;24458;-62
2022/01/07 00:24:28;;;;;;;6.47;3.07;;;;;;;;;;5121367;27;24493;-58
2022/01/07 00:26:53;;;;;;;2.90;2.50;;;;;;;;;;5119818;27;24525;-58
2022/01/07 00:29:18;;;;;;;3.07;2.60;;;;;;;;;;5119389;27;25022;-59
2022/01/07 00:31:44;;;;;;;3.15;2.70;;;;;;;;;;5120571;27;24419;-58
2022/01/07 00:34:09;;;;;;;4.20;3.20;;;;;;;;;;5123571;27;24943;-58
2022/01/07 00:36:34;;;;;;;3.00;2.65;;;;;;;;;;5123528;27;24482;-58
2022/01/07 00:38:59;;;;;;;3.83;2.73;;;;;;;;;;5118555;27;24419;-59
2022/01/07 00:41:24;;;;;;;3.10;2.80;;;;;;;;;;5119044;27;24420;-59
2022/01/07 00:43:50;;;;;;;4.83;3.03;;;;;;;;;;5120644;27;24527;-59
2022/01/07 00:46:16;;;;;;;2.93;2.67;;;;;;;;;;5122164;27;24420;-58
2022/01/07 00:48:41;;;;;;;3.20;2.90;;;;;;;;;;5123386;27;24433;-58
2022/01/07 00:51:06;;;;;;;4.18;2.72;;;;;;;;;;5120084;27;24421;-58
2022/01/07 00:53:31;;;;;;;2.90;2.60;;;;;;;;;;5121079;27;24405;-59
2022/01/07 00:55:56;;;;;;;2.47;2.27;;;;;;;;;;5119325;27;24460;-59
2022/01/07 00:58:21;;;;;;;3.70;2.60;;;;;;;;;;5121494;27;24417;-59
2022/01/07 01:00:47;;;;;;;3.30;2.70;;;;;;;;;;5120347;27;24471;-60
2022/01/07 01:03:12;;;;;;;3.08;2.60;;;;;;;;;;5123443;27;24405;-58
2022/01/07 01:05:39;;;;;;;3.83;2.50;;;;;;;;;;5119365;27;24409;-57
2022/01/07 01:08:04;;;;;;;3.65;2.58;;;;;;;;;;5120410;27;24579;-58
2022/01/07 01:10:29;;;;;;;3.20;2.90;;;;;;;;;;5122858;27;24923;-57
2022/01/07 01:12:55;;;;;;;3.50;3.00;;;;;;;;;;5122717;28;24405;-57
2022/01/07 01:15:22;;;;;;;2.60;2.40;;;;;;;;;;5118486;28;24487;-57
2022/01/07 01:17:47;;;;;;;2.70;2.47;;;;;;;;;;5120212;28;24416;-59
2022/01/07 01:20:13;;;;;;;3.17;2.53;;;;;;;;;;5127144;27;24515;-59
2022/01/07 01:22:38;;;;;;;2.50;2.30;;;;;;;;;;5125577;27;24920;-58
2022/01/07 01:25:04;;;;;;;2.93;2.63;;;;;;;;;;5122816;27;24413;-59
2022/01/07 01:27:30;;;;;;;2.50;2.30;;;;;;;;;;5122591;27;24431;-59
2022/01/07 01:29:55;;;;;;;4.20;2.70;;;;;;;;;;5124553;27;24432;-59
2022/01/07 01:32:20;;;;;;;3.00;2.17;;;;;;;;;;5126889;27;24405;-59
2022/01/07 01:34:45;;;;;;;2.80;2.10;;;;;;;;;;5125236;27;24414;-59
2022/01/07 01:37:10;;;;;;;2.83;2.20;;;;;;;;;;5124370;27;24806;-59
2022/01/07 01:39:36;;;;;;;4.38;2.35;;;;;;;;;;5121143;27;24425;-60
2022/01/07 01:42:01;;;;;;;2.50;2.30;;;;;;;;;;5124972;27;24505;-59
2022/01/07 01:44:26;;;;;;;2.30;2.10;;;;;;;;;;5126209;27;24744;-60
2022/01/07 01:46:51;;;;;;;2.83;1.90;;;;;;;;;;5121260;27;24763;-59
2022/01/07 01:49:17;;;;;;;3.80;2.20;;;;;;;;;;5122062;27;24504;-58
2022/01/07 01:51:42;;;;;;;2.40;2.20;;;;;;;;;;5123402;27;24409;-59
2022/01/07 01:54:07;;;;;;;4.13;1.83;;;;;;;;;;5126299;27;24520;-60
2022/01/07 01:56:32;;;;;;;2.60;1.80;;;;;;;;;;5126450;27;24397;-59
2022/01/07 01:58:58;;;;;;;2.13;1.80;;;;;;;;;;5122242;27;24436;-60
2022/01/07 02:01:23;;;;;;;2.40;1.80;;;;;;;;;;5118489;27;24424;-59
2022/01/07 02:03:48;;;;;;;3.27;2.30;;;;;;;;;;5118703;27;24429;-60
2022/01/07 02:06:14;;;;;;;3.20;2.10;;;;;;;;;;5125994;27;24409;-57
2022/01/07 02:08:39;;;;;;;2.03;1.83;;;;;;;;;;5125865;27;24498;-57
2022/01/07 02:11:04;;;;;;;2.50;1.60;;;;;;;;;;5122408;27;24889;-57
2022/01/07 02:13:30;;;;;;;4.00;1.70;;;;;;;;;;5122265;27;24409;-56
2022/01/07 02:15:55;;;;;;;1.60;1.50;;;;;;;;;;5121351;27;24410;-57
2022/01/07 02:18:20;;;;;;;2.10;1.90;;;;;;;;;;5123145;27;24424;-58
2022/01/07 02:20:47;;;;;;;3.30;1.97;;;;;;;;;;5123305;27;24405;-57
2022/01/07 02:23:12;;;;;;;3.35;1.77;;;;;;;;;;5124669;27;24444;-57
2022/01/07 02:25:37;;;;;;;3.10;1.87;;;;;;;;;;5124195;27;24455;-57
2022/01/07 02:28:03;;;;;;;2.30;1.80;;;;;;;;;;5115886;27;24420;-57
2022/01/07 02:30:29;;;;;;;2.33;2.03;;;;;;;;;;5120721;27;25270;-57
2022/01/07 02:32:55;;;;;;;1.63;1.52;;;;;;;;;;5120915;27;24417;-58
2022/01/07 02:35:22;;;;;;;2.60;2.07;;;;;;;;;;5124715;27;24489;-57
2022/01/07 02:37:47;;;;;;;3.20;2.10;;;;;;;;;;5122847;27;24950;-58
2022/01/07 02:40:12;;;;;;;1.83;1.73;;;;;;;;;;5122543;27;24428;-58
2022/01/07 02:42:38;;;;;;;2.20;2.00;;;;;;;;;;5119232;27;24458;-58
2022/01/07 02:45:08;;;;;;;2.42;2.10;;;;;;;;;;5121615;27;24409;-58
2022/01/07 02:47:41;;;;;;;4.45;2.03;;;;;;;;;;5124171;27;25042;-58
2022/01/07 02:50:07;;;;;;;2.65;2.20;;;;;;;;;;5122532;27;24433;-58
2022/01/07 02:52:32;;;;;;;3.93;2.40;;;;;;;;;;5119000;27;24409;-58
2022/01/07 02:54:57;;;;;;;4.70;3.00;;;;;;;;;;5122957;27;24397;-58
2022/01/07 02:57:22;;;;;;;3.90;2.90;;;;;;;;;;5124566;27;24424;-58
2022/01/07 02:59:48;;;;;;;3.40;2.40;;;;;;;;;;5125277;27;24420;-59
2022/01/07 03:02:13;;;;;;;5.43;2.72;;;;;;;;;;5118845;27;24768;-60
2022/01/07 03:04:38;;;;;;;2.70;2.50;;;;;;;;;;5120441;27;24433;-60
2022/01/07 03:07:04;;;;;;;4.05;2.70;;;;;;;;;;5120934;27;24535;-59
2022/01/07 03:09:29;;;;;;;3.97;2.50;;;;;;;;;;5124384;27;24814;-59
2022/01/07 03:11:54;;;;;;;3.23;2.47;;;;;;;;;;5120181;27;24922;-59
2022/01/07 03:14:19;;;;;;;2.65;2.45;;;;;;;;;;5124198;27;24813;-58
2022/01/07 03:16:44;;;;;;;3.65;2.60;;;;;;;;;;5117610;27;24416;-59
2022/01/07 03:19:10;;;;;;;4.47;2.80;;;;;;;;;;5120361;27;24685;-59
2022/01/07 03:21:35;;;;;;;5.07;2.72;;;;;;;;;;5122845;27;24975;-58
2022/01/07 03:24:00;;;;;;;5.00;3.00;;;;;;;;;;5115746;27;24448;-58
2022/01/07 03:26:25;;;;;;;4.70;3.70;;;;;;;;;;5120702;27;24412;-58
2022/01/07 03:28:50;;;;;;;4.90;3.30;;;;;;;;;;5120242;27;24515;-59
2022/01/07 03:31:16;;;;;;;4.57;3.30;;;;;;;;;;5124474;27;24417;-58
2022/01/07 03:33:41;;;;;;;3.53;3.10;;;;;;;;;;5123884;27;25199;-59
2022/01/07 03:36:06;;;;;;;4.30;3.10;;;;;;;;;;5121727;27;25012;-58
2022/01/07 03:38:31;;;;;;;4.00;3.47;;;;;;;;;;5124432;27;24476;-58
2022/01/07 03:40:56;;;;;;;5.33;3.20;;;;;;;;;;5117877;27;24408;-59
2022/01/07 03:43:22;;;;;;;4.97;3.07;;;;;;;;;;5121913;27;25367;-57
2022/01/07 03:45:47;;;;;;;3.50;2.90;;;;;;;;;;5122186;27;24457;-58
2022/01/07 03:48:12;;;;;;;4.00;3.00;;;;;;;;;;5124376;27;24458;-58
2022/01/07 03:50:37;;;;;;;4.13;3.30;;;;;;;;;;5122959;27;24459;-58
2022/01/07 03:53:03;;;;;;;4.57;3.40;;;;;;;;;;5118268;27;24412;-57
2022/01/07 03:55:29;;;;;;;3.10;2.80;;;;;;;;;;5119493;27;24465;-59
2022/01/07 03:57:54;;;;;;;4.90;3.45;;;;;;;;;;5122234;27;24451;-59
2022/01/07 04:00:21;;;;;;;4.00;3.10;;;;;;;;;;5123605;27;24792;-58
2022/01/07 04:02:47;;;;;;;3.17;2.88;;;;;;;;;;5110789;27;24433;-58
2022/01/07 04:05:14;;;;;;;5.53;3.33;;;;;;;;;;5119166;27;24784;-58
2022/01/07 04:07:39;;;;;;;4.75;4.25;;;;;;;;;;5117165;27;24433;-59
2022/01/07 04:10:05;;;;;;;6.70;4.53;;;;;;;;;;5123450;27;24428;-58
2022/01/07 04:12:30;;;;;;;4.70;4.20;;;;;;;;;;5121882;27;24423;-57
2022/01/07 04:15:08;;;;;;;4.77;3.80;;;;;;;;;;5122263;27;24566;-59
2022/01/07 04:17:40;;;;;;;4.82;3.75;;;;;;;;;;5121582;27;24424;-58
2022/01/07 04:20:07;;;;;;;5.60;3.80;;;;;;;;;;5119390;27;24480;-59
2022/01/07 04:22:35;;;;;;;4.70;3.45;;;;;;;;;;5120344;27;24835;-57
2022/01/07 04:25:02;;;;;;;3.83;3.40;;;;;;;;;;5120393;27;24473;-58
2022/01/07 04:27:28;;;;;;;4.28;3.35;;;;;;;;;;5121948;27;24458;-57
2022/01/07 04:29:53;;;;;;;3.70;3.40;;;;;;;;;;5119215;27;24520;-58
2022/01/07 04:32:18;;;;;;;4.50;3.47;;;;;;;;;;5120461;27;24413;-57
2022/01/07 04:34:44;;;;;;;4.80;3.43;;;;;;;;;;5121551;27;24929;-58
2022/01/07 04:37:09;;;;;;;4.40;3.40;;;;;;;;;;5117393;27;24567;-57
2022/01/07 04:39:34;;;;;;;6.03;3.30;;;;;;;;;;5116921;27;24414;-58
2022/01/07 04:41:59;;;;;;;5.45;3.58;;;;;;;;;;5114096;27;24416;-58
2022/01/07 04:44:25;;;;;;;4.10;3.20;;;;;;;;;;5122477;27;24423;-58
2022/01/07 04:46:50;;;;;;;5.97;3.40;;;;;;;;;;5123164;27;24448;-59
2022/01/07 04:49:15;;;;;;;4.15;3.50;;;;;;;;;;5119893;27;24842;-58
2022/01/07 04:51:40;;;;;;;3.95;3.53;;;;;;;;;;5121585;27;24428;-58
2022/01/07 04:54:05;;;;;;;4.20;3.44;;;;;;;;;;5118940;27;24505;-57
2022/01/07 04:56:30;;;;;;;5.20;3.80;;;;;;;;;;5119403;27;24754;-58
2022/01/07 04:58:55;;;;;;;4.40;4.00;;;;;;;;;;5121899;27;24506;-58
2022/01/07 05:01:21;;;;;;;4.18;3.50;;;;;;;;;;5118817;27;24484;-58
2022/01/07 05:03:46;;;;;;;4.80;3.88;;;;;;;;;;5121550;27;24954;-58
2022/01/07 05:06:43;;;;;;;7.05;4.40;;;;;;;;;;5120425;27;24435;-58
2022/01/07 05:08:56;;;;;;;5.30;3.90;;;;;;;;;;5118175;27;24958;-57
2022/01/07 05:11:21;;;;;;;5.45;3.88;;;;;;;;;;5123208;27;25001;-58
2022/01/07 05:13:46;;;;;;;4.95;4.38;;;;;;;;;;5121750;27;25129;-58
2022/01/07 05:16:11;;;;;;;6.00;4.50;;;;;;;;;;5122462;28;24405;-58
2022/01/07 05:18:37;;;;;;;6.10;4.87;;;;;;;;;;5120547;28;24821;-57
2022/01/07 05:21:02;;;;;;;5.60;4.40;;;;;;;;;;5116484;28;24417;-58
2022/01/07 05:23:27;;;;;;;5.73;4.40;;;;;;;;;;5116230;28;24401;-59
2022/01/07 05:25:52;;;;;;;6.15;4.53;;;;;;;;;;5117451;28;24966;-59
2022/01/07 05:28:17;;;;;;;5.43;4.70;;;;;;;;;;5117967;28;24467;-58
2022/01/07 05:30:42;;;;;;;4.80;4.30;;;;;;;;;;5121442;28;24428;-56
2022/01/07 05:33:10;;;;;;;5.50;4.30;;;;;;;;;;5114468;28;24518;-57
2022/01/07 05:35:36;;;;;;;5.70;5.00;;;;;;;;;;5110170;28;24461;-58
2022/01/07 05:38:01;;;;;;;6.80;5.00;;;;;;;;;;5107174;28;24467;-59
2022/01/07 05:40:26;;;;;;;5.50;4.90;;;;;;;;;;5117314;28;24429;-58
2022/01/07 05:42:51;;;;;;;6.30;4.90;;;;;;;;;;5118546;28;24433;-59
2022/01/07 05:45:16;;;;;;;5.80;4.70;;;;;;;;;;5112022;28;25355;-59
2022/01/07 05:47:41;;;;;;;6.63;4.83;;;;;;;;;;5112674;28;24417;-58
2022/01/07 05:50:07;;;;;;;5.20;4.70;;;;;;;;;;5116068;28;24501;-59
2022/01/07 05:52:32;;;;;;;5.50;5.00;;;;;;;;;;5115205;28;25055;-58
2022/01/07 05:54:57;;;;;;;5.10;4.60;;;;;;;;;;5117395;28;24429;-58
2022/01/07 05:57:23;;;;;;;6.10;5.40;;;;;;;;;;5119730;28;25108;-59
2022/01/07 05:59:48;;;;;;;6.00;5.40;;;;;;;;;;5113900;28;24413;-62
2022/01/07 06:02:13;;;;;;;6.00;5.40;;;;;;;;;;5102349;28;24465;-57
2022/01/07 06:04:38;;;;;;;5.38;4.88;;;;;;;;;;5111556;27;24412;-58
2022/01/07 06:07:03;;;;;;;6.03;5.43;;;;;;;;;;5117223;27;24485;-59
2022/01/07 06:09:28;;;;;;;7.20;5.80;;;;;;;;;;5123344;27;24823;-59
2022/01/07 06:11:54;;;;;;;7.28;6.13;;;;;;;;;;5113834;27;24512;-57
2022/01/07 06:14:19;;;;;;;7.93;6.65;;;;;;;;;;5114739;27;24827;-57
2022/01/07 06:16:44;;;;;;;7.47;6.67;;;;;;;;;;5119352;27;24506;-58
2022/01/07 06:19:09;;;;;;;7.47;6.27;;;;;;;;;;5123580;27;24509;-58
2022/01/07 06:21:34;;;;;;;6.63;6.03;;;;;;;;;;5124207;27;24409;-58
2022/01/07 06:24:00;;;;;;;8.07;6.60;;;;;;;;;;5110276;27;24654;-59
2022/01/07 06:26:25;;;;;;;6.80;6.10;;;;;;;;;;5121142;27;24405;-58
2022/01/07 06:28:51;;;;;;;7.20;6.50;;;;;;;;;;5122418;27;24432;-58
2022/01/07 06:31:16;;;;;;;7.10;6.40;;;;;;;;;;5125835;27;24431;-60
2022/01/07 06:33:41;;;;;;;7.43;6.73;;;;;;;;;;5125970;27;24829;-59
2022/01/07 06:36:07;;;;;;;9.27;6.70;;;;;;;;;;5121654;27;25056;-58
2022/01/07 06:38:32;;;;;;;7.97;7.13;;;;;;;;;;5120929;27;24397;-59
2022/01/07 06:40:57;;;;;;;8.80;6.87;;;;;;;;;;5123673;27;24792;-59
2022/01/07 06:43:22;;;;;;;7.80;7.00;;;;;;;;;;5125837;27;24966;-58
2022/01/07 06:45:47;;;;;;;8.05;6.65;;;;;;;;;;5123716;27;24401;-59
2022/01/07 06:48:12;;;;;;;7.13;5.80;;;;;;;;;;5121388;27;24497;-59
2022/01/07 06:50:37;;;;;;;6.13;5.47;;;;;;;;;;5120750;27;24976;-57
2022/01/07 06:53:03;;;;;;;7.30;5.80;;;;;;;;;;5116916;27;24848;-58
2022/01/07 06:55:28;;;;;;;6.07;5.27;;;;;;;;;;5116438;27;24405;-57
2022/01/07 06:57:53;;;;;;;7.22;5.65;;;;;;;;;;5105858;27;24409;-59
2022/01/07 07:00:18;;;;;;;6.72;6.00;;;;;;;;;;5119547;27;24481;-58
2022/01/07 07:02:43;;;;;;;7.47;6.63;;;;;;;;;;5112758;27;24521;-58
2022/01/07 07:05:08;;;;;;;8.37;6.73;;;;;;;;;;5118679;27;25000;-58
2022/01/07 07:07:34;;;;;;;7.15;6.45;;;;;;;;;;5117726;27;24460;-58
2022/01/07 07:09:59;;;;;;;8.33;6.47;;;;;;;;;;5120376;27;24433;-58
2022/01/07 07:12:24;;;;;;;8.57;6.93;;;;;;;;;;5118674;27;24930;-58
2022/01/07 07:14:49;;;;;;;8.03;6.70;;;;;;;;;;5116430;27;24417;-59
2022/01/07 07:17:15;;;;;;;7.38;6.18;;;;;;;;;;5116438;27;24485;-59
2022/01/07 07:19:40;;;;;;;7.87;6.10;;;;;;;;;;5103368;27;24516;-59
2022/01/07 07:22:06;;;;;;;7.47;6.40;;;;;;;;;;5122444;27;24417;-58
2022/01/07 07:24:31;;;;;;;8.97;7.20;;;;;;;;;;5121975;27;24440;-58
2022/01/07 07:26:57;;;;;;;8.33;7.33;;;;;;;;;;5116750;27;24444;-57
2022/01/07 07:29:22;;;;;;;10.18;7.70;;;;;;;;;;5115320;27;24425;-57
2022/01/07 07:31:50;;;;;;;8.82;7.53;;;;;;;;;;5118097;27;24416;-58
2022/01/07 07:36:41;;;;;;;8.65;7.32;;;;;;;;;;5116975;27;25450;-58
2022/01/07 07:39:07;;;;;;;9.33;8.33;;;;;;;;;;5120046;27;24416;-58
2022/01/07 07:41:33;;;;;;;10.13;8.63;;;;;;;;;;5098065;28;24425;-60
2022/01/07 07:43:59;;;;;;;10.60;8.60;;;;;;;;;;5118362;27;24511;-58
2022/01/07 07:46:30;;;;;;;10.43;8.87;;;;;;;;;;5116126;27;24502;-58
2022/01/07 07:48:55;;;;;;;9.85;8.45;;;;;;;;;;5114894;27;24417;-58
2022/01/07 07:51:20;;;;;;;13.07;8.90;;;;;;;;;;5123367;27;24416;-58
2022/01/07 07:53:46;;;;;;;10.23;8.23;;;;;;;;;;5116717;27;24439;-58
2022/01/07 07:56:11;;;;;;;10.70;8.65;;;;;;;;;;5117814;27;24413;-57
2022/01/07 07:58:37;;;;;;;10.40;9.30;;;;;;;;;;5121022;27;24799;-57
2022/01/07 08:01:02;;;;;;;10.70;9.00;;;;;;;;;;5113708;27;24496;-58
2022/01/07 08:03:27;;;;;;;10.47;9.03;;;;;;;;;;5105516;27;24991;-58
2022/01/07 08:05:52;;;;;;;12.53;9.70;;;;;;;;;;5117499;27;24801;-59
2022/01/07 08:08:18;;;;;;;12.27;10.30;;;;;;;;;;5119418;27;24894;-58
2022/01/07 08:10:56;;;;;;;12.98;9.40;;;;;;;;;;5120433;27;24428;-59
2022/01/07 08:13:31;;;;;;;13.80;10.23;;;;;;;;;;5124874;27;24397;-58
2022/01/07 08:15:59;;;;;;;11.18;9.20;;;;;;;;;;5123673;27;24416;-59
2022/01/07 08:18:35;;;;;;;12.13;10.07;;;;;;;;;;5124619;27;24428;-58
2022/01/07 08:21:02;;;;;;;10.13;9.10;;;;;;;;;;5118423;27;24428;-59
2022/01/07 08:23:28;;;;;;;10.60;9.50;;;;;;;;;;5122726;27;24832;-58
2022/01/07 08:25:53;;;;;;;12.97;9.73;;;;;;;;;;5120328;27;24397;-59
2022/01/07 08:28:19;;;;;;;13.90;9.70;;;;;;;;;;5124139;27;24417;-59
2022/01/07 08:31:13;;;;;;;12.07;9.30;;;;;;;;;;5124216;27;24445;-58
2022/01/07 08:36:27;;;;;;;11.68;9.80;;;;;;;;;;5119935;27;24472;-58
2022/01/07 08:38:53;;;;;;;12.27;10.43;;;;;;;;;;5123495;27;24997;-58
2022/01/07 08:41:19;;;;;;;11.57;9.45;;;;;;;;;;5123732;27;24436;-59
2022/01/07 08:43:44;;;;;;;10.95;9.77;;;;;;;;;;5124329;27;24964;-58
2022/01/07 08:46:09;;;;;;;12.95;10.40;;;;;;;;;;5122098;27;24504;-58
2022/01/07 08:48:35;;;;;;;12.80;9.50;;;;;;;;;;5119798;27;24473;-58
2022/01/07 08:51:00;;;;;;;11.87;10.07;;;;;;;;;;5119445;27;24418;-59
2022/01/07 08:53:25;;;;;;;12.77;10.25;;;;;;;;;;5105346;27;24999;-58
2022/01/07 08:55:51;;;;;;;10.68;9.30;;;;;;;;;;5122234;27;24392;-58
2022/01/07 08:58:16;;;;;;;12.32;9.80;;;;;;;;;;5122310;27;24737;-56
2022/01/07 09:00:41;;;;;;;11.93;9.80;;;;;;;;;;5121378;27;24409;-57
2022/01/07 09:03:07;;;;;;;11.70;10.50;;;;;;;;;;5119615;27;24413;-58
2022/01/07 09:05:32;;;;;;;11.63;9.10;;;;;;;;;;5122927;27;25088;-57
2022/01/07 09:07:57;;;;;;;10.10;9.10;;;;;;;;;;5121323;27;24420;-57
2022/01/07 09:10:23;;;;;;;10.80;9.60;;;;;;;;;;5119884;27;24629;-57
2022/01/07 09:12:48;;;;;;;11.85;9.93;;;;;;;;;;5118031;27;24500;-57
2022/01/07 09:15:13;;;;;;;12.43;10.50;;;;;;;;;;5119533;28;24399;-57
2022/01/07 09:17:39;;;;;;;13.30;10.80;;;;;;;;;;5122338;28;24518;-62
2022/01/07 09:20:05;;;;;;;12.05;10.75;;;;;;;;;;5121999;28;24424;-57
2022/01/07 09:22:31;;;;;;;15.95;11.38;;;;;;;;;;5123357;28;24397;-57
2022/01/07 09:24:56;;;;;;;11.20;10.00;;;;;;;;;;5117574;28;25298;-58
2022/01/07 09:27:21;;;;;;;12.68;11.20;;;;;;;;;;5123069;27;24509;-58
2022/01/07 09:29:46;;;;;;;12.50;10.63;;;;;;;;;;5123321;27;24840;-58
2022/01/07 09:32:12;;;;;;;11.73;10.02;;;;;;;;;;5121442;27;24383;-58
2022/01/07 09:34:37;;;;;;;11.40;9.93;;;;;;;;;;5122919;28;24404;-58
2022/01/07 09:37:03;;;;;;;10.67;9.57;;;;;;;;;;5117105;28;24436;-58
2022/01/07 09:39:28;;;;;;;11.02;9.80;;;;;;;;;;5120671;27;25213;-58
2022/01/07 09:41:53;;;;;;;14.23;11.00;;;;;;;;;;5127257;27;24500;-58
2022/01/07 09:44:19;;;;;;;10.57;9.47;;;;;;;;;;5127314;27;24496;-57
2022/01/07 09:46:44;;;;;;;10.50;9.40;;;;;;;;;;5126414;27;24413;-58
2022/01/07 09:49:09;;;;;;;11.20;10.00;;;;;;;;;;5125187;27;24512;-60
2022/01/07 09:51:36;;;;;;;12.27;9.40;;;;;;;;;;5121251;27;24396;-58
2022/01/07 09:54:02;;;;;;;13.40;11.20;;;;;;;;;;5125312;27;24467;-57
2022/01/07 09:56:27;;;;;;;12.03;10.70;;;;;;;;;;5126793;27;24421;-59
2022/01/07 09:58:52;;;;;;;12.88;10.82;;;;;;;;;;5125373;27;24779;-59
2022/01/07 10:01:20;;;;;;;10.77;9.68;;;;;;;;;;5122906;27;24386;-59
2022/01/07 10:03:45;;;;;;;11.65;10.32;;;;;;;;;;5120929;27;24759;-58
2022/01/07 10:06:16;;;;;;;10.83;9.40;;;;;;;;;;5124868;27;24953;-58
2022/01/07 10:08:41;;;;;;;12.20;10.40;;;;;;;;;;5125701;27;24413;-58
2022/01/07 10:11:14;;;;;;;10.13;9.13;;;;;;;;;;5124982;27;24397;-58
2022/01/07 10:13:40;;;;;;;12.60;10.00;;;;;;;;;;5124269;27;24404;-58
2022/01/07 10:16:16;;;;;;;11.95;10.10;;;;;;;;;;5121022;27;24960;-57
2022/01/07 10:18:41;;;;;;;12.35;10.38;;;;;;;;;;5125533;27;24416;-58
2022/01/07 10:21:07;;;;;;;12.32;9.43;;;;;;;;;;5124715;27;24409;-57
2022/01/07 10:23:32;;;;;;;14.48;9.50;;;;;;;;;;5126416;27;24409;-57
2022/01/07 10:25:57;;;;;;;11.40;9.50;;;;;;;;;;5124038;27;24513;-57
2022/01/07 10:28:30;;;;;;;9.67;8.47;;;;;;;;;;5121707;27;25006;-57
2022/01/07 10:30:55;;;;;;;9.73;8.15;;;;;;;;;;5121777;27;24441;-58
2022/01/07 10:33:22;;;;;;;10.27;7.93;;;;;;;;;;5125856;27;24401;-58
2022/01/07 10:35:48;;;;;;;7.78;6.97;;;;;;;;;;5122426;27;24391;-57
2022/01/07 10:38:14;;;;;;;9.35;7.43;;;;;;;;;;5121939;27;24593;-57
2022/01/07 10:40:40;;;;;;;8.07;6.90;;;;;;;;;;5122020;27;24417;-57
2022/01/07 10:43:20;;;;;;;9.32;7.03;;;;;;;;;;5126038;27;24911;-57
2022/01/07 10:45:45;;;;;;;7.40;6.60;;;;;;;;;;5123458;27;24454;-58
2022/01/07 10:48:11;;;;;;;7.30;6.60;;;;;;;;;;5122235;27;24770;-58
2022/01/07 10:50:44;;;;;;;8.88;7.60;;;;;;;;;;5120458;27;24427;-58
2022/01/07 10:53:28;;;;;;;8.35;7.43;;;;;;;;;;5125040;27;24424;-58
2022/01/07 10:56:07;;;;;;;7.15;6.15;;;;;;;;;;5123581;27;25173;-58
2022/01/07 10:58:51;;;;;;;8.13;6.40;;;;;;;;;;5125403;27;24433;-57
2022/01/07 11:01:19;;;;;;;7.47;6.60;;;;;;;;;;5119979;27;24909;-58
2022/01/07 11:03:45;;;;;;;7.72;6.50;;;;;;;;;;5121174;27;24489;-57
2022/01/07 11:06:11;;;;;;;8.32;6.80;;;;;;;;;;5121973;27;24543;-58
2022/01/07 11:08:36;;;;;;;7.05;6.30;;;;;;;;;;5124729;27;24892;-57
2022/01/07 11:11:01;;;;;;;6.97;6.30;;;;;;;;;;5123889;27;24943;-58
2022/01/07 11:13:26;;;;;;;7.97;6.80;;;;;;;;;;5120268;27;24389;-58
2022/01/07 11:15:51;;;;;;;8.32;7.00;;;;;;;;;;5121624;27;24913;-57
2022/01/07 11:18:17;;;;;;;6.90;6.20;;;;;;;;;;5124746;27;25042;-58
2022/01/07 11:20:43;;;;;;;6.80;6.10;;;;;;;;;;5125380;27;24385;-58
2022/01/07 11:23:08;;;;;;;7.18;6.20;;;;;;;;;;5123361;27;24401;-57
2022/01/07 11:25:33;;;;;;;8.45;6.25;;;;;;;;;;5120082;27;24560;-57
2022/01/07 11:28:00;;;;;;;9.93;7.40;;;;;;;;;;5123386;27;24401;-57
2022/01/07 11:30:28;;;;;;;9.02;7.50;;;;;;;;;;5124991;27;24455;-57
2022/01/07 11:32:54;;;;;;;7.18;6.45;;;;;;;;;;5123051;27;24441;-57
2022/01/07 11:35:19;;;;;;;6.83;5.77;;;;;;;;;;5121285;27;24442;-59
2022/01/07 11:37:46;;;;;;;7.30;6.60;;;;;;;;;;5121091;27;24475;-57
2022/01/07 11:40:31;;;;;;;6.40;5.80;;;;;;;;;;5124736;27;24405;-58
2022/01/07 11:43:04;;;;;;;9.20;7.10;;;;;;;;;;5122667;27;24504;-57
2022/01/07 11:45:30;;;;;;;9.07;6.45;;;;;;;;;;5124795;27;25187;-57
2022/01/07 11:47:55;;;;;;;7.03;6.00;;;;;;;;;;5120858;27;24421;-58
2022/01/07 11:50:20;;;;;;;6.68;5.97;;;;;;;;;;5120670;27;24429;-58
2022/01/07 11:52:56;;;;;;;8.17;6.70;;;;;;;;;;5118814;27;24785;-56
2022/01/07 11:55:22;;;;;;;8.10;6.55;;;;;;;;;;5124459;27;24446;-58
2022/01/07 11:57:48;;;;;;;8.60;7.00;;;;;;;;;;5123555;27;24451;-58
2022/01/07 12:00:13;;;;;;;8.73;6.60;;;;;;;;;;5121475;27;24433;-58
2022/01/07 12:02:57;;;;;;;8.73;7.80;;;;;;;;;;5118120;27;24397;-57
2022/01/07 12:05:30;;;;;;;8.07;7.07;;;;;;;;;;5124773;27;24408;-56
2022/01/07 12:07:55;;;;;;;8.18;6.45;;;;;;;;;;5121709;27;25062;-58
2022/01/07 12:10:20;;;;;;;8.18;7.38;;;;;;;;;;5124576;27;24425;-57
2022/01/07 12:12:45;;;;;;;8.77;7.87;;;;;;;;;;5121921;27;24492;-59
2022/01/07 12:15:10;;;;;;;8.27;7.37;;;;;;;;;;5120645;27;24978;-57
2022/01/07 12:17:36;;;;;;;8.82;7.60;;;;;;;;;;5118238;27;24417;-58
2022/01/07 12:20:36;;;;;;;8.60;7.80;;;;;;;;;;5119738;27;25049;-58
2022/01/07 12:23:01;;;;;;;9.05;7.60;;;;;;;;;;5123192;27;24416;-58
2022/01/07 12:25:26;;;;;;;8.50;7.00;;;;;;;;;;5124070;27;24401;-58
2022/01/07 12:27:59;;;;;;;7.60;6.80;;;;;;;;;;5122163;27;25177;-59
2022/01/07 12:30:25;;;;;;;8.05;6.20;;;;;;;;;;5118095;27;24459;-59
2022/01/07 12:32:50;;;;;;;7.10;6.40;;;;;;;;;;5121687;27;25085;-58
2022/01/07 12:35:15;;;;;;;6.60;6.00;;;;;;;;;;5123934;27;24409;-59
2022/01/07 12:37:41;;;;;;;6.20;5.60;;;;;;;;;;5123317;27;24800;-58
2022/01/07 12:40:07;;;;;;;6.90;6.20;;;;;;;;;;5121985;27;24413;-57
2022/01/07 12:42:42;;;;;;;7.72;6.00;;;;;;;;;;5123009;27;24816;-58
2022/01/07 12:45:12;;;;;;;7.15;6.45;;;;;;;;;;5097776;28;24514;-58
2022/01/07 12:47:38;;;;;;;6.90;6.20;;;;;;;;;;5097625;28;24473;-58
2022/01/07 12:50:04;;;;;;;8.07;6.57;;;;;;;;;;5099733;27;25049;-58
2022/01/07 12:52:37;;;;;;;7.05;6.35;;;;;;;;;;5124062;27;24392;-59
2022/01/07 12:55:02;;;;;;;7.00;6.30;;;;;;;;;;5120023;27;24420;-58
2022/01/07 12:57:39;;;;;;;6.70;6.00;;;;;;;;;;5120147;27;24541;-59
2022/01/07 13:00:06;;;;;;;7.80;6.55;;;;;;;;;;5121778;27;24398;-59
2022/01/07 13:02:32;;;;;;;8.10;6.90;;;;;;;;;;5123084;27;24417;-59
2022/01/07 13:05:13;;;;;;;7.80;6.13;;;;;;;;;;5120956;27;24413;-59
2022/01/07 13:07:39;;;;;;;8.00;7.00;;;;;;;;;;5121613;27;24389;-59
2022/01/07 13:10:04;;;;;;;7.22;6.53;;;;;;;;;;5117608;27;24435;-59
2022/01/07 13:12:29;;;;;;;7.57;6.80;;;;;;;;;;5123801;27;24458;-59
2022/01/07 13:14:54;;;;;;;7.00;6.30;;;;;;;;;;5119891;27;24554;-59
2022/01/07 13:17:22;;;;;;;7.20;6.50;;;;;;;;;;5123121;28;24410;-59
2022/01/07 13:19:49;;;;;;;8.00;7.15;;;;;;;;;;5121661;28;24847;-59
2022/01/07 13:22:14;;;;;;;8.27;7.25;;;;;;;;;;5119033;28;25177;-59
2022/01/07 13:24:40;;;;;;;8.87;7.70;;;;;;;;;;5118693;28;24439;-59
2022/01/07 13:27:06;;;;;;;7.27;6.53;;;;;;;;;;5123279;28;24425;-58
2022/01/07 13:29:32;;;;;;;7.95;6.80;;;;;;;;;;5123174;28;25079;-59
2022/01/07 13:32:02;;;;;;;7.63;6.72;;;;;;;;;;5116879;28;24508;-59
2022/01/07 13:34:28;;;;;;;8.35;7.55;;;;;;;;;;5117460;28;24396;-59
2022/01/07 13:36:59;;;;;;;9.60;8.20;;;;;;;;;;5122295;28;25004;-60
2022/01/07 13:39:24;;;;;;;7.80;7.00;;;;;;;;;;5123651;28;24408;-60
2022/01/07 13:41:57;;;;;;;8.85;7.65;;;;;;;;;;5122863;28;24817;-59
2022/01/07 13:44:22;;;;;;;8.10;7.30;;;;;;;;;;5117428;28;24405;-59
2022/01/07 13:46:49;;;;;;;9.17;8.27;;;;;;;;;;5118785;28;24420;-59
2022/01/07 13:49:15;;;;;;;9.40;8.30;;;;;;;;;;5122716;28;24892;-60
2022/01/07 13:51:49;;;;;;;8.33;7.53;;;;;;;;;;5123108;28;24972;-61
2022/01/07 13:54:15;;;;;;;8.20;7.40;;;;;;;;;;5122926;28;24466;-60
2022/01/07 13:56:45;;;;;;;10.15;8.05;;;;;;;;;;5117059;28;24417;-60
2022/01/07 13:59:12;;;;;;;9.60;7.60;;;;;;;;;;5116607;28;24423;-59
2022/01/07 14:01:51;;;;;;;7.68;6.97;;;;;;;;;;5121100;28;24393;-60
2022/01/07 14:04:16;;;;;;;10.40;8.43;;;;;;;;;;5122623;28;24427;-59
2022/01/07 14:06:41;;;;;;;8.60;7.53;;;;;;;;;;5121304;28;24791;-60
2022/01/07 14:09:14;;;;;;;8.68;7.88;;;;;;;;;;5116442;28;24417;-61
2022/01/07 14:11:39;;;;;;;8.90;8.00;;;;;;;;;;5119217;28;24731;-60
2022/01/07 14:14:14;;;;;;;10.13;9.07;;;;;;;;;;5120632;28;24480;-61
2022/01/07 14:16:45;;;;;;;10.10;7.88;;;;;;;;;;5122541;28;24476;-61
2022/01/07 14:19:10;;;;;;;9.25;8.32;;;;;;;;;;5118213;28;24420;-61
2022/01/07 14:21:35;;;;;;;8.10;7.30;;;;;;;;;;5116922;28;24751;-61
2022/01/07 14:24:00;;;;;;;10.10;8.77;;;;;;;;;;5120945;28;24403;-60
2022/01/07 14:26:30;;;;;;;9.10;8.10;;;;;;;;;;5125195;27;24393;-61
2022/01/07 14:28:59;;;;;;;10.15;9.10;;;;;;;;;;5123759;27;24408;-61
2022/01/07 14:31:25;;;;;;;8.90;8.00;;;;;;;;;;5125813;27;24412;-60
2022/01/07 14:33:50;;;;;;;8.00;7.20;;;;;;;;;;5121005;27;24409;-60
2022/01/07 14:36:15;;;;;;;9.43;8.48;;;;;;;;;;5121936;27;24512;-60
2022/01/07 14:38:41;;;;;;;10.03;7.50;;;;;;;;;;5124463;27;24432;-60